createdAt,value
2019-05-28T00:00:30.409Z,9.40
2019-05-28T00:02:57.162Z,9.50
2019-05-28T00:05:24.028Z,9.40
2019-05-28T00:07:51.476Z,9.40
2019-05-28T00:10:18.985Z,9.40
2019-05-28T00:12:45.812Z,9.40
2019-05-28T00:15:12.610Z,9.40
2019-05-28T00:17:39.330Z,9.40
2019-05-28T00:20:06.087Z,9.50
2019-05-28T00:22:32.891Z,9.40
2019-05-28T00:24:59.584Z,9.40
2019-05-28T00:27:26.284Z,9.40
2019-05-28T00:29:53.013Z,9.40
2019-05-28T00:32:19.810Z,9.40
2019-05-28T00:34:46.571Z,9.40
2019-05-28T00:37:13.272Z,9.30
2019-05-28T00:39:40.073Z,9.20
2019-05-28T00:42:07.545Z,9.30
2019-05-28T00:44:34.247Z,9.30
2019-05-28T00:47:01.019Z,9.20
2019-05-28T00:49:27.758Z,9.30
2019-05-28T00:51:54.504Z,9.30
2019-05-28T00:54:21.280Z,9.30
2019-05-28T00:56:48.818Z,9.40
2019-05-28T00:59:15.623Z,9.30
2019-05-28T01:01:42.382Z,9.30
2019-05-28T01:04:09.161Z,9.30
2019-05-28T01:06:35.977Z,9.30
2019-05-28T01:09:02.774Z,9.30
2019-05-28T01:11:29.540Z,9.20
2019-05-28T01:13:56.223Z,9.20
2019-05-28T01:16:24.250Z,9.20
2019-05-28T01:18:51.293Z,9.10
2019-05-28T01:21:18.059Z,9.10
2019-05-28T01:23:44.762Z,9.10
2019-05-28T01:26:12.198Z,9.00
2019-05-28T01:28:38.901Z,9.00
2019-05-28T01:31:05.624Z,9.10
2019-05-28T01:33:32.322Z,9.10
2019-05-28T01:35:59.226Z,9.10
2019-05-28T01:38:25.918Z,9.10
2019-05-28T01:40:52.610Z,9.10
2019-05-28T01:43:19.306Z,9.10
2019-05-28T01:45:46.120Z,9.20
2019-05-28T01:48:13.560Z,9.20
2019-05-28T01:50:40.294Z,9.20
2019-05-28T01:53:07.218Z,9.20
2019-05-28T01:55:33.947Z,9.20
2019-05-28T01:58:00.712Z,9.20
2019-05-28T02:00:27.411Z,9.20
2019-05-28T02:02:54.126Z,9.20
2019-05-28T02:05:21.240Z,9.20
2019-05-28T02:07:48.405Z,9.20
2019-05-28T02:10:15.125Z,9.20
2019-05-28T02:12:41.869Z,9.20
2019-05-28T02:15:08.595Z,9.30
2019-05-28T02:17:35.333Z,9.30
2019-05-28T02:20:02.072Z,9.30
2019-05-28T02:22:28.828Z,9.30
2019-05-28T02:24:55.520Z,9.30
2019-05-28T02:27:22.956Z,9.20
2019-05-28T02:29:50.428Z,9.30
2019-05-28T02:32:17.892Z,9.40
2019-05-28T02:34:44.613Z,9.30
2019-05-28T02:37:12.043Z,9.40
2019-05-28T02:39:38.757Z,9.30
2019-05-28T02:42:05.507Z,9.40
2019-05-28T02:44:32.280Z,9.40
2019-05-28T02:46:59.031Z,9.40
2019-05-28T02:49:26.463Z,9.50
2019-05-28T02:51:53.261Z,9.50
2019-05-28T02:54:20.020Z,9.60
2019-05-28T02:56:46.752Z,9.60
2019-05-28T02:59:13.488Z,9.70
2019-05-28T03:01:44.529Z,9.70
2019-05-28T03:04:07.904Z,9.80
2019-05-28T03:06:34.656Z,9.90
2019-05-28T03:09:01.478Z,9.90
2019-05-28T03:11:28.222Z,9.90
2019-05-28T03:13:54.929Z,9.90
2019-05-28T03:16:22.448Z,9.90
2019-05-28T03:18:49.924Z,10.00
2019-05-28T03:21:16.732Z,9.90
2019-05-28T03:23:43.438Z,10.00
2019-05-28T03:26:10.189Z,10.00
2019-05-28T03:28:36.966Z,10.00
2019-05-28T03:31:03.715Z,10.10
2019-05-28T03:33:30.468Z,10.10
2019-05-28T03:35:57.418Z,10.10
2019-05-28T03:38:24.171Z,10.10
2019-05-28T03:40:51.618Z,10.10
2019-05-28T03:43:18.346Z,10.10
2019-05-28T03:45:45.048Z,10.20
2019-05-28T03:48:11.779Z,10.30
2019-05-28T03:50:38.551Z,10.30
2019-05-28T03:53:06.621Z,10.40
2019-05-28T03:55:34.234Z,10.50
2019-05-28T03:58:01.089Z,10.50
2019-05-28T04:00:27.800Z,10.60
2019-05-28T04:02:55.334Z,10.80
2019-05-28T04:05:22.110Z,10.70
2019-05-28T04:07:49.598Z,11.10
2019-05-28T04:10:17.161Z,11.30
2019-05-28T04:12:43.887Z,11.30
2019-05-28T04:15:10.629Z,11.40
2019-05-28T04:17:37.398Z,11.40
2019-05-28T04:20:04.111Z,11.50
2019-05-28T04:22:30.799Z,11.70
2019-05-28T04:24:57.551Z,11.80
2019-05-28T04:27:24.257Z,12.00
2019-05-28T04:29:51.189Z,12.10
2019-05-28T04:32:18.020Z,12.00
2019-05-28T04:34:44.910Z,12.00
2019-05-28T04:37:11.679Z,11.90
2019-05-28T04:39:39.227Z,12.20
2019-05-28T04:42:06.721Z,12.20
2019-05-28T04:44:33.407Z,12.30
2019-05-28T04:47:00.114Z,12.60
2019-05-28T04:49:27.465Z,12.90
2019-05-28T04:51:54.357Z,13.40
2019-05-28T04:54:21.841Z,15.10
2019-05-28T04:56:49.297Z,18.20
2019-05-28T04:59:16.791Z,21.20
2019-05-28T05:01:43.500Z,21.20
2019-05-28T05:04:10.263Z,22.60
2019-05-28T05:06:37.051Z,23.70
2019-05-28T05:09:03.825Z,23.60
2019-05-28T05:11:31.350Z,25.90
2019-05-28T05:13:58.053Z,25.80
2019-05-28T05:16:24.786Z,27.50
2019-05-28T05:18:51.536Z,26.60
2019-05-28T05:21:18.238Z,25.50
2019-05-28T05:23:45.695Z,24.60
2019-05-28T05:26:12.469Z,24.50
2019-05-28T05:28:39.192Z,24.30
2019-05-28T05:31:06.024Z,23.00
2019-05-28T05:33:33.562Z,23.70
2019-05-28T05:36:01.024Z,24.80
2019-05-28T05:38:28.469Z,25.30
2019-05-28T05:40:55.185Z,25.30
2019-05-28T05:43:21.894Z,24.50
2019-05-28T05:45:48.609Z,23.80
2019-05-28T05:48:16.099Z,21.30
2019-05-28T05:53:40.540Z,19.50
2019-05-28T05:56:07.254Z,18.50
2019-05-28T05:58:33.964Z,18.40
2019-05-28T06:01:00.750Z,17.80
2019-05-28T06:03:39.907Z,17.20
2019-05-28T06:05:54.310Z,17.20
2019-05-28T06:08:21.108Z,17.70
2019-05-28T06:10:48.621Z,19.70
2019-05-28T06:13:15.365Z,19.60
2019-05-28T06:15:42.106Z,20.40
2019-05-28T06:18:08.866Z,20.90
2019-05-28T06:20:35.634Z,20.80
2019-05-28T06:23:02.348Z,20.40
2019-05-28T06:25:29.080Z,20.30
2019-05-28T06:27:55.900Z,19.20
2019-05-28T06:30:22.646Z,18.60
2019-05-28T06:32:49.358Z,18.60
2019-05-28T06:35:16.146Z,18.10
2019-05-28T06:37:42.910Z,18.40
2019-05-28T06:40:09.625Z,18.70
2019-05-28T06:42:39.351Z,18.70
2019-05-28T06:45:05.939Z,18.80
2019-05-28T06:47:32.621Z,18.30
2019-05-28T06:49:59.328Z,18.70
2019-05-28T06:52:26.041Z,18.10
2019-05-28T06:54:52.786Z,18.70
2019-05-28T06:57:22.725Z,19.30
2019-05-28T06:59:46.317Z,19.20
2019-05-28T07:02:13.044Z,19.50
2019-05-28T07:04:39.772Z,19.90
2019-05-28T07:07:06.610Z,21.20
2019-05-28T07:09:33.321Z,21.00
2019-05-28T07:12:00.747Z,20.30
2019-05-28T07:14:27.563Z,20.30
2019-05-28T07:16:54.271Z,20.20
2019-05-28T07:19:24.576Z,21.00
2019-05-28T07:21:47.750Z,23.10
2019-05-28T07:24:14.496Z,24.30
2019-05-28T07:26:41.248Z,26.10
2019-05-28T07:29:07.945Z,26.90
2019-05-28T07:31:35.379Z,27.70
2019-05-28T07:34:02.919Z,28.00
2019-05-28T07:36:29.617Z,28.00
2019-05-28T07:38:56.376Z,28.90
2019-05-28T07:41:23.051Z,27.80
2019-05-28T07:43:49.841Z,25.30
2019-05-28T07:46:16.569Z,23.30
2019-05-28T07:48:44.037Z,21.20
2019-05-28T07:51:11.495Z,20.50
2019-05-28T07:53:40.518Z,20.50
2019-05-28T07:56:05.061Z,22.00
2019-05-28T07:58:31.850Z,23.40
2019-05-28T08:00:58.545Z,24.20
2019-05-28T08:03:25.299Z,24.20
2019-05-28T08:05:52.000Z,22.30
2019-05-28T08:08:18.796Z,20.70
2019-05-28T08:10:45.574Z,20.40
2019-05-28T08:13:12.297Z,20.20
2019-05-28T08:15:39.798Z,19.70
2019-05-28T08:18:06.534Z,19.60
2019-05-28T08:20:34.107Z,19.60
2019-05-28T08:23:01.589Z,20.70
2019-05-28T08:25:46.203Z,20.60
2019-05-28T08:27:55.230Z,22.20
2019-05-28T08:30:21.975Z,23.70
2019-05-28T08:32:48.675Z,25.50
2019-05-28T08:35:15.391Z,25.50
2019-05-28T08:37:42.113Z,25.40
2019-05-28T08:40:08.907Z,25.90
2019-05-28T08:42:35.610Z,26.10
2019-05-28T08:45:02.360Z,25.10
2019-05-28T08:47:29.094Z,25.20
2019-05-28T08:49:55.799Z,24.60
2019-05-28T08:52:23.288Z,24.10
2019-05-28T08:54:51.284Z,24.10
2019-05-28T08:57:16.772Z,23.70
2019-05-28T08:59:43.475Z,23.40
2019-05-28T09:02:26.465Z,23.50
2019-05-28T09:04:37.799Z,23.50
2019-05-28T09:07:04.571Z,23.40
2019-05-28T09:09:31.258Z,23.60
2019-05-28T09:11:58.743Z,23.60
2019-05-28T09:14:25.458Z,23.60
2019-05-28T09:16:52.261Z,23.60
2019-05-28T09:19:18.989Z,22.80
2019-05-28T09:21:45.670Z,22.30
2019-05-28T09:24:12.466Z,20.80
2019-05-28T09:26:39.187Z,19.90
2019-05-28T09:29:05.900Z,19.50
2019-05-28T09:31:32.610Z,19.30
2019-05-28T09:33:59.317Z,19.30
2019-05-28T09:36:26.041Z,19.70
2019-05-28T09:38:53.496Z,19.90
2019-05-28T09:41:20.922Z,19.80
2019-05-28T09:43:47.681Z,19.80
2019-05-28T09:46:15.110Z,20.00
2019-05-28T09:48:41.837Z,19.90
2019-05-28T09:51:08.531Z,20.70
2019-05-28T09:53:35.949Z,21.10
2019-05-28T09:56:02.769Z,21.00
2019-05-28T09:58:29.474Z,20.90
2019-05-28T10:00:58.947Z,20.50
2019-05-28T10:03:24.526Z,20.60
2019-05-28T10:06:02.024Z,20.60
2019-05-28T10:08:17.990Z,20.40
2019-05-28T10:10:44.788Z,20.90
2019-05-28T10:13:11.478Z,21.00
2019-05-28T10:15:38.209Z,21.00
2019-05-28T10:18:05.000Z,20.90
2019-05-28T10:20:31.805Z,21.00
2019-05-28T10:22:58.510Z,20.50
2019-05-28T10:25:25.281Z,20.00
2019-05-28T10:28:01.073Z,20.10
2019-05-28T10:30:18.821Z,20.30
2019-05-28T10:32:45.482Z,20.20
2019-05-28T10:35:12.253Z,20.60
2019-05-28T10:37:38.934Z,21.00
2019-05-28T10:40:05.713Z,21.60
2019-05-28T10:42:32.471Z,21.50
2019-05-28T10:44:59.139Z,21.20
2019-05-28T10:47:25.878Z,21.10
2019-05-28T10:49:52.720Z,21.50
2019-05-28T10:52:19.411Z,21.00
2019-05-28T10:54:46.122Z,20.40
2019-05-28T10:57:12.823Z,20.00
2019-05-28T10:59:39.530Z,19.60
2019-05-28T11:02:06.247Z,19.30
2019-05-28T11:04:33.033Z,19.20
2019-05-28T11:06:59.704Z,18.70
2019-05-28T11:09:26.413Z,18.50
2019-05-28T11:11:53.121Z,18.60
2019-05-28T11:14:20.603Z,19.30
2019-05-28T11:16:47.297Z,19.30
2019-05-28T11:19:14.071Z,19.00
2019-05-28T11:21:40.788Z,19.10
2019-05-28T11:24:07.530Z,18.90
2019-05-28T11:26:35.059Z,18.90
2019-05-28T11:29:01.766Z,18.90
2019-05-28T11:31:28.986Z,18.80
2019-05-28T11:33:56.560Z,18.70
2019-05-28T11:36:23.259Z,18.70
2019-05-28T11:38:49.965Z,18.70
2019-05-28T11:41:16.698Z,19.00
2019-05-28T11:43:43.458Z,18.90
2019-05-28T11:46:10.233Z,18.80
2019-05-28T11:48:36.932Z,18.40
2019-05-28T11:51:03.693Z,18.20
2019-05-28T11:53:30.483Z,18.20
2019-05-28T11:55:57.215Z,18.10
2019-05-28T11:58:24.677Z,18.40
2019-05-28T12:00:51.461Z,18.30
2019-05-28T12:03:18.169Z,18.40
2019-05-28T12:05:44.843Z,18.40
2019-05-28T12:08:11.662Z,18.20
2019-05-28T12:10:38.402Z,18.40
2019-05-28T12:13:05.136Z,18.30
2019-05-28T12:15:31.891Z,18.30
2019-05-28T12:17:58.690Z,18.20
2019-05-28T12:20:25.502Z,18.20
2019-05-28T12:23:09.599Z,17.90
2019-05-28T12:25:19.799Z,17.70
2019-05-28T12:28:00.751Z,17.60
2019-05-28T12:30:27.493Z,17.60
2019-05-28T12:32:54.206Z,17.60
2019-05-28T12:35:28.475Z,17.10
2019-05-28T12:37:50.088Z,16.80
2019-05-28T12:40:14.644Z,15.90
2019-05-28T12:42:41.433Z,15.00
2019-05-28T12:45:10.223Z,14.90
2019-05-28T12:47:35.860Z,14.90
2019-05-28T12:50:18.144Z,14.90
2019-05-28T12:52:31.889Z,14.90
2019-05-28T12:54:59.339Z,15.50
2019-05-28T12:57:26.051Z,15.50
2019-05-28T12:59:52.769Z,16.00
2019-05-28T13:02:19.451Z,16.20
2019-05-28T13:04:46.225Z,16.00
2019-05-28T13:07:12.969Z,16.20
2019-05-28T13:09:41.798Z,15.80
2019-05-28T13:12:08.754Z,15.60
2019-05-28T13:14:35.499Z,15.60
2019-05-28T13:17:03.149Z,15.50
2019-05-28T13:19:29.858Z,15.50
2019-05-28T13:21:56.598Z,15.60
2019-05-28T13:24:23.377Z,15.60
2019-05-28T13:26:50.101Z,15.50
2019-05-28T13:29:16.851Z,15.10
2019-05-28T13:31:43.623Z,14.80
2019-05-28T13:34:10.327Z,14.80
2019-05-28T13:36:37.035Z,14.80
2019-05-28T13:39:03.871Z,14.90
2019-05-28T13:41:30.567Z,15.10
2019-05-28T13:43:58.083Z,15.30
2019-05-28T13:46:25.610Z,15.60
2019-05-28T13:48:53.053Z,16.00
2019-05-28T13:51:20.572Z,16.20
2019-05-28T13:53:47.282Z,16.20
2019-05-28T13:56:14.027Z,16.30
2019-05-28T13:58:40.852Z,16.30
2019-05-28T14:01:08.342Z,16.70
2019-05-28T14:03:35.070Z,16.70
2019-05-28T14:06:01.793Z,17.10
2019-05-28T14:08:44.756Z,17.50
2019-05-28T14:10:56.155Z,17.40
2019-05-28T14:13:22.886Z,17.00
2019-05-28T14:15:49.591Z,16.80
2019-05-28T14:18:16.329Z,16.60
2019-05-28T14:20:43.116Z,16.50
2019-05-28T14:23:09.845Z,16.70
2019-05-28T14:25:37.317Z,17.20
2019-05-28T14:28:04.103Z,17.10
2019-05-28T14:30:31.624Z,16.90
2019-05-28T14:32:58.360Z,16.90
2019-05-28T14:35:25.070Z,16.70
2019-05-28T14:37:51.804Z,16.90
2019-05-28T14:40:18.566Z,16.90
2019-05-28T14:42:45.411Z,17.00
2019-05-28T14:45:12.164Z,16.60
2019-05-28T14:47:38.962Z,16.40
2019-05-28T14:50:05.738Z,16.70
2019-05-28T14:52:32.436Z,16.60
2019-05-28T14:54:59.133Z,16.40
2019-05-28T14:57:25.991Z,16.40
2019-05-28T14:59:53.476Z,16.00
2019-05-28T15:02:20.199Z,16.00
2019-05-28T15:04:47.005Z,16.00
2019-05-28T15:07:14.478Z,16.10
2019-05-28T15:09:41.274Z,16.10
2019-05-28T15:12:07.999Z,16.00
2019-05-28T15:14:34.748Z,16.00
2019-05-28T15:17:01.563Z,16.10
2019-05-28T15:19:28.311Z,16.10
2019-05-28T15:21:55.063Z,16.00
2019-05-28T15:24:21.900Z,16.20
2019-05-28T15:26:49.367Z,16.30
2019-05-28T15:29:16.785Z,16.50
2019-05-28T15:31:43.523Z,16.40
2019-05-28T15:34:10.252Z,16.50
2019-05-28T15:36:36.917Z,16.30
2019-05-28T15:39:04.485Z,15.70
2019-05-28T15:41:31.959Z,15.50
2019-05-28T15:43:58.711Z,15.50
2019-05-28T15:46:25.402Z,15.40
2019-05-28T15:48:52.106Z,15.40
2019-05-28T15:51:18.837Z,15.50
2019-05-28T15:53:45.540Z,15.70
2019-05-28T15:56:13.006Z,15.60
2019-05-28T15:58:40.494Z,15.70
2019-05-28T16:01:07.234Z,15.60
2019-05-28T16:03:33.996Z,15.60
2019-05-28T16:06:00.728Z,15.70
2019-05-28T16:08:27.466Z,16.00
2019-05-28T16:10:54.205Z,16.10
2019-05-28T16:13:20.917Z,16.30
2019-05-28T16:15:47.704Z,16.60
2019-05-28T16:18:14.471Z,16.50
2019-05-28T16:20:41.164Z,16.70
2019-05-28T16:23:07.913Z,16.80
2019-05-28T16:25:34.575Z,16.50
2019-05-28T16:28:01.257Z,16.20
2019-05-28T16:30:28.763Z,15.80
2019-05-28T16:32:55.483Z,15.70
2019-05-28T16:35:22.204Z,14.90
2019-05-28T16:37:49.015Z,14.50
2019-05-28T16:40:16.583Z,14.20
2019-05-28T16:42:43.330Z,13.60
2019-05-28T16:45:10.844Z,13.50
2019-05-28T16:47:37.572Z,13.50
2019-05-28T16:50:04.423Z,13.50
2019-05-28T16:52:31.117Z,13.50
2019-05-28T16:54:57.803Z,13.50
2019-05-28T16:57:24.514Z,13.50
2019-05-28T16:59:51.236Z,13.50
2019-05-28T17:02:18.689Z,13.30
2019-05-28T17:04:45.398Z,13.30
2019-05-28T17:07:12.891Z,13.00
2019-05-28T17:09:39.661Z,13.00
2019-05-28T17:12:06.405Z,12.90
2019-05-28T17:14:33.114Z,12.80
2019-05-28T17:17:02.968Z,12.60
2019-05-28T17:19:26.775Z,12.70
2019-05-28T17:21:54.636Z,12.90
2019-05-28T17:24:21.457Z,12.80
2019-05-28T17:26:48.161Z,13.00
2019-05-28T17:29:14.909Z,13.20
2019-05-28T17:31:41.590Z,13.30
2019-05-28T17:34:08.314Z,13.40
2019-05-28T17:36:35.843Z,13.60
2019-05-28T17:39:03.407Z,13.80
2019-05-28T17:41:30.102Z,13.80
2019-05-28T17:43:57.572Z,14.10
2019-05-28T17:46:25.385Z,14.10
2019-05-28T17:48:52.096Z,14.10
2019-05-28T17:51:19.535Z,14.30
2019-05-28T17:54:10.582Z,14.40
2019-05-28T17:56:41.514Z,14.50
2019-05-28T17:59:08.192Z,14.50
2019-05-28T18:01:34.888Z,14.50
2019-05-28T18:04:01.632Z,14.50
2019-05-28T18:06:28.321Z,14.40
2019-05-28T18:08:55.022Z,14.10
2019-05-28T18:11:23.555Z,14.00
2019-05-28T18:13:51.005Z,13.60
2019-05-28T18:16:17.845Z,13.60
2019-05-28T18:18:44.681Z,13.40
2019-05-28T18:21:12.194Z,13.10
2019-05-28T18:23:38.883Z,13.10
2019-05-28T18:26:05.677Z,13.00
2019-05-28T18:28:32.388Z,12.90
2019-05-28T18:30:59.887Z,12.60
2019-05-28T18:33:26.548Z,12.60
2019-05-28T18:35:53.590Z,12.50
2019-05-28T18:38:20.349Z,12.40
2019-05-28T18:40:47.056Z,12.40
2019-05-28T18:43:13.820Z,12.20
2019-05-28T18:45:40.539Z,12.10
2019-05-28T18:48:07.502Z,11.90
2019-05-28T18:50:34.209Z,11.80
2019-05-28T18:53:01.063Z,11.60
2019-05-28T18:55:27.743Z,11.50
2019-05-28T18:57:54.511Z,11.40
2019-05-28T19:00:21.392Z,11.40
2019-05-28T19:02:48.084Z,11.30
2019-05-28T19:05:14.889Z,11.30
2019-05-28T19:07:41.573Z,11.30
2019-05-28T19:10:09.065Z,11.30
2019-05-28T19:12:35.922Z,11.20
2019-05-28T19:15:05.775Z,11.30
2019-05-28T19:17:32.682Z,11.30
2019-05-28T19:20:00.203Z,11.40
2019-05-28T19:22:26.939Z,11.40
2019-05-28T19:24:57.300Z,11.70
2019-05-28T19:27:22.039Z,11.70
2019-05-28T19:29:50.611Z,11.70
2019-05-28T19:32:16.230Z,11.70
2019-05-28T19:34:43.754Z,11.70
2019-05-28T19:37:10.529Z,11.70
2019-05-28T19:39:39.180Z,11.70
2019-05-28T19:42:04.270Z,11.60
2019-05-28T19:44:30.986Z,11.50
2019-05-28T19:46:57.752Z,11.50
2019-05-28T19:49:25.558Z,11.30
2019-05-28T19:51:52.614Z,11.20
2019-05-28T19:54:20.779Z,10.90
2019-05-28T19:56:48.250Z,10.80
2019-05-28T19:59:15.228Z,10.80
2019-05-28T20:01:42.749Z,10.50
2019-05-28T20:04:10.169Z,10.40
2019-05-28T20:06:36.880Z,10.40
2019-05-28T20:09:03.672Z,10.30
2019-05-28T20:11:30.419Z,10.30
2019-05-28T20:13:57.160Z,10.20
2019-05-28T20:16:23.866Z,10.20
2019-05-28T20:18:51.344Z,10.10
2019-05-28T20:21:18.249Z,10.00
2019-05-28T20:23:45.817Z,10.00
2019-05-28T20:26:11.819Z,10.00
2019-05-28T20:28:38.517Z,10.00
2019-05-28T20:31:05.991Z,9.90
2019-05-28T20:33:32.134Z,9.90
2019-05-28T20:35:59.763Z,9.80
2019-05-28T20:38:27.818Z,9.70
2019-05-28T20:40:54.966Z,9.70
2019-05-28T20:43:21.765Z,9.70
2019-05-28T20:45:48.529Z,9.70
2019-05-28T20:48:15.250Z,9.60
2019-05-28T20:50:43.047Z,9.60
2019-05-28T20:53:10.019Z,9.60
2019-05-28T20:55:36.932Z,9.60
2019-05-28T20:58:04.023Z,9.70
2019-05-28T21:00:31.550Z,9.60
2019-05-28T21:02:58.268Z,9.60
2019-05-28T21:05:25.033Z,9.60
2019-05-28T21:07:53.125Z,9.60
2019-05-28T21:10:18.783Z,9.50
2019-05-28T21:12:45.517Z,9.50
2019-05-28T21:15:15.752Z,9.50
2019-05-28T21:17:39.060Z,9.50
2019-05-28T21:20:06.668Z,9.50
2019-05-28T21:22:33.450Z,9.40
2019-05-28T21:25:00.629Z,9.40
2019-05-28T21:27:27.669Z,9.20
2019-05-28T21:29:54.406Z,9.20
2019-05-28T21:32:21.143Z,9.30
2019-05-28T21:34:47.846Z,9.20
2019-05-28T21:37:14.720Z,9.10
2019-05-28T21:39:42.059Z,9.00
2019-05-28T21:42:08.912Z,8.80
2019-05-28T21:44:36.453Z,8.50
2019-05-28T21:47:03.193Z,8.50
2019-05-28T21:49:29.931Z,8.40
2019-05-28T21:51:56.894Z,8.40
2019-05-28T21:54:23.800Z,8.30
2019-05-28T21:56:51.408Z,8.10
2019-05-28T21:59:18.948Z,8.00
2019-05-28T22:01:45.907Z,8.00
2019-05-28T22:04:13.090Z,7.90
2019-05-28T22:06:40.111Z,7.90
2019-05-28T22:09:08.055Z,7.80
2019-05-28T22:11:33.945Z,7.80
2019-05-28T22:14:02.221Z,7.60
2019-05-28T22:16:28.820Z,7.60
2019-05-28T22:18:56.204Z,7.60
2019-05-28T22:21:22.599Z,7.50
2019-05-28T22:23:50.175Z,7.50
2019-05-28T22:26:17.037Z,7.50
2019-05-28T22:28:44.663Z,7.40
2019-05-28T22:31:14.857Z,7.40
2019-05-28T22:33:38.968Z,7.40
2019-05-28T22:36:05.907Z,7.40
2019-05-28T22:38:32.729Z,7.40
2019-05-28T22:41:00.387Z,7.30
2019-05-28T22:43:31.539Z,7.30
2019-05-28T22:45:53.245Z,7.30
2019-05-28T22:48:20.105Z,7.20
2019-05-28T22:50:46.941Z,7.20
2019-05-28T22:53:13.914Z,7.10
2019-05-28T22:55:40.801Z,7.00
2019-05-28T22:58:08.617Z,7.00
2019-05-28T23:00:35.167Z,7.00
2019-05-28T23:03:02.961Z,7.00
2019-05-28T23:05:30.082Z,6.90
2019-05-28T23:07:56.776Z,6.90
2019-05-28T23:10:23.532Z,6.90
2019-05-28T23:12:50.294Z,6.80
2019-05-28T23:15:17.767Z,6.70
2019-05-28T23:17:45.292Z,6.70
2019-05-28T23:20:12.367Z,6.70
2019-05-28T23:22:39.088Z,6.70
2019-05-28T23:25:07.561Z,6.70
2019-05-28T23:27:34.262Z,6.70
2019-05-28T23:30:10.596Z,6.70
2019-05-28T23:32:30.096Z,6.70
2019-05-28T23:34:56.870Z,6.70
2019-05-28T23:37:23.600Z,6.70
2019-05-28T23:39:50.323Z,6.70
2019-05-28T23:42:17.121Z,6.70
2019-05-28T23:44:43.846Z,6.70
2019-05-28T23:47:10.525Z,6.70
2019-05-28T23:49:38.067Z,6.70
2019-05-28T23:52:04.961Z,6.70
2019-05-28T23:54:31.546Z,6.70
2019-05-28T23:56:58.408Z,6.70
2019-05-28T23:59:25.846Z,6.70
